sensor_id;sensor_type;location;lat;lon;timestamp;P1;durP1;ratioP1;P2;durP2;ratioP2
51636;SDS011;37713;53.254;6.460;2024-02-28T00:04:19;49.55;;;21.10;;
51636;SDS011;37713;53.254;6.460;2024-02-28T00:06:45;52.67;;;23.33;;
51636;SDS011;37713;53.254;6.460;2024-02-28T00:09:13;48.28;;;21.70;;
51636;SDS011;37713;53.254;6.460;2024-02-28T00:11:42;52.65;;;22.60;;
51636;SDS011;37713;53.254;6.460;2024-02-28T00:14:14;44.40;;;22.15;;
51636;SDS011;37713;53.254;6.460;2024-02-28T00:16:44;47.70;;;22.42;;
51636;SDS011;37713;53.254;6.460;2024-02-28T00:19:13;46.63;;;20.98;;
51636;SDS011;37713;53.254;6.460;2024-02-28T00:21:39;46.95;;;21.15;;
51636;SDS011;37713;53.254;6.460;2024-02-28T00:24:06;51.83;;;21.85;;
51636;SDS011;37713;53.254;6.460;2024-02-28T00:26:33;45.75;;;21.25;;
51636;SDS011;37713;53.254;6.460;2024-02-28T00:28:59;48.72;;;22.15;;
51636;SDS011;37713;53.254;6.460;2024-02-28T00:31:25;47.20;;;21.00;;
51636;SDS011;37713;53.254;6.460;2024-02-28T00:33:51;44.30;;;21.02;;
51636;SDS011;37713;53.254;6.460;2024-02-28T00:36:17;47.67;;;21.42;;
51636;SDS011;37713;53.254;6.460;2024-02-28T00:38:43;47.72;;;21.85;;
51636;SDS011;37713;53.254;6.460;2024-02-28T00:41:09;45.42;;;19.98;;
51636;SDS011;37713;53.254;6.460;2024-02-28T00:43:35;45.42;;;20.58;;
51636;SDS011;37713;53.254;6.460;2024-02-28T00:46:01;45.58;;;21.00;;
51636;SDS011;37713;53.254;6.460;2024-02-28T00:48:28;49.85;;;21.27;;
51636;SDS011;37713;53.254;6.460;2024-02-28T00:50:54;44.83;;;20.92;;
51636;SDS011;37713;53.254;6.460;2024-02-28T00:53:20;46.10;;;21.17;;
51636;SDS011;37713;53.254;6.460;2024-02-28T00:55:46;41.97;;;19.77;;
51636;SDS011;37713;53.254;6.460;2024-02-28T00:58:12;46.03;;;21.52;;
51636;SDS011;37713;53.254;6.460;2024-02-28T01:00:38;45.78;;;20.60;;
51636;SDS011;37713;53.254;6.460;2024-02-28T01:03:03;43.13;;;20.52;;
51636;SDS011;37713;53.254;6.460;2024-02-28T01:05:30;48.42;;;22.05;;
51636;SDS011;37713;53.254;6.460;2024-02-28T01:07:56;43.97;;;20.75;;
51636;SDS011;37713;53.254;6.460;2024-02-28T01:10:22;48.67;;;21.50;;
51636;SDS011;37713;53.254;6.460;2024-02-28T01:12:48;46.38;;;21.45;;
51636;SDS011;37713;53.254;6.460;2024-02-28T01:15:14;44.72;;;20.48;;
51636;SDS011;37713;53.254;6.460;2024-02-28T01:17:40;46.63;;;21.65;;
51636;SDS011;37713;53.254;6.460;2024-02-28T01:20:06;47.80;;;21.20;;
51636;SDS011;37713;53.254;6.460;2024-02-28T01:22:33;44.67;;;20.70;;
51636;SDS011;37713;53.254;6.460;2024-02-28T01:25:00;44.80;;;20.88;;
51636;SDS011;37713;53.254;6.460;2024-02-28T01:27:29;54.10;;;22.20;;
51636;SDS011;37713;53.254;6.460;2024-02-28T01:29:55;47.45;;;22.02;;
51636;SDS011;37713;53.254;6.460;2024-02-28T01:32:21;46.92;;;21.52;;
51636;SDS011;37713;53.254;6.460;2024-02-28T01:34:46;47.25;;;21.73;;
51636;SDS011;37713;53.254;6.460;2024-02-28T01:37:12;44.42;;;20.98;;
51636;SDS011;37713;53.254;6.460;2024-02-28T01:39:38;43.53;;;20.70;;
51636;SDS011;37713;53.254;6.460;2024-02-28T01:42:04;46.38;;;21.70;;
51636;SDS011;37713;53.254;6.460;2024-02-28T01:44:30;46.30;;;22.10;;
51636;SDS011;37713;53.254;6.460;2024-02-28T01:46:58;49.17;;;22.67;;
51636;SDS011;37713;53.254;6.460;2024-02-28T01:49:24;46.65;;;21.60;;
51636;SDS011;37713;53.254;6.460;2024-02-28T01:51:51;46.20;;;21.58;;
51636;SDS011;37713;53.254;6.460;2024-02-28T01:54:19;47.13;;;22.02;;
51636;SDS011;37713;53.254;6.460;2024-02-28T01:56:46;47.22;;;21.55;;
51636;SDS011;37713;53.254;6.460;2024-02-28T01:59:12;50.33;;;23.15;;
51636;SDS011;37713;53.254;6.460;2024-02-28T02:01:39;51.50;;;22.20;;
51636;SDS011;37713;53.254;6.460;2024-02-28T02:04:05;45.28;;;22.05;;
51636;SDS011;37713;53.254;6.460;2024-02-28T02:06:32;49.70;;;22.92;;
51636;SDS011;37713;53.254;6.460;2024-02-28T02:09:01;46.70;;;22.75;;
51636;SDS011;37713;53.254;6.460;2024-02-28T02:11:28;54.38;;;24.00;;
51636;SDS011;37713;53.254;6.460;2024-02-28T02:13:54;52.50;;;22.63;;
51636;SDS011;37713;53.254;6.460;2024-02-28T02:16:20;48.60;;;21.98;;
51636;SDS011;37713;53.254;6.460;2024-02-28T02:18:51;49.13;;;23.58;;
51636;SDS011;37713;53.254;6.460;2024-02-28T02:21:18;49.03;;;22.25;;
51636;SDS011;37713;53.254;6.460;2024-02-28T02:23:45;49.95;;;23.02;;
51636;SDS011;37713;53.254;6.460;2024-02-28T02:26:11;44.53;;;21.45;;
51636;SDS011;37713;53.254;6.460;2024-02-28T02:28:37;52.42;;;23.35;;
51636;SDS011;37713;53.254;6.460;2024-02-28T02:31:03;53.47;;;23.10;;
51636;SDS011;37713;53.254;6.460;2024-02-28T02:33:29;48.00;;;22.65;;
51636;SDS011;37713;53.254;6.460;2024-02-28T02:35:54;50.08;;;23.33;;
51636;SDS011;37713;53.254;6.460;2024-02-28T02:38:20;52.05;;;23.88;;
51636;SDS011;37713;53.254;6.460;2024-02-28T02:40:50;52.22;;;22.25;;
51636;SDS011;37713;53.254;6.460;2024-02-28T02:43:16;52.63;;;23.08;;
51636;SDS011;37713;53.254;6.460;2024-02-28T02:45:42;52.22;;;23.80;;
51636;SDS011;37713;53.254;6.460;2024-02-28T02:48:09;53.08;;;23.48;;
51636;SDS011;37713;53.254;6.460;2024-02-28T02:50:35;55.00;;;24.05;;
51636;SDS011;37713;53.254;6.460;2024-02-28T02:53:02;45.03;;;21.75;;
51636;SDS011;37713;53.254;6.460;2024-02-28T02:55:28;49.55;;;23.33;;
51636;SDS011;37713;53.254;6.460;2024-02-28T02:57:54;50.67;;;23.58;;
51636;SDS011;37713;53.254;6.460;2024-02-28T03:00:20;51.17;;;23.65;;
51636;SDS011;37713;53.254;6.460;2024-02-28T03:02:47;53.17;;;24.23;;
51636;SDS011;37713;53.254;6.460;2024-02-28T03:05:13;51.60;;;22.75;;
51636;SDS011;37713;53.254;6.460;2024-02-28T03:07:38;51.88;;;23.05;;
51636;SDS011;37713;53.254;6.460;2024-02-28T03:10:05;49.88;;;22.30;;
51636;SDS011;37713;53.254;6.460;2024-02-28T03:12:31;49.95;;;21.58;;
51636;SDS011;37713;53.254;6.460;2024-02-28T03:14:57;42.42;;;21.65;;
51636;SDS011;37713;53.254;6.460;2024-02-28T03:17:23;47.92;;;22.52;;
51636;SDS011;37713;53.254;6.460;2024-02-28T03:19:49;49.45;;;22.85;;
51636;SDS011;37713;53.254;6.460;2024-02-28T03:22:15;51.58;;;24.17;;
51636;SDS011;37713;53.254;6.460;2024-02-28T03:24:40;46.65;;;23.00;;
51636;SDS011;37713;53.254;6.460;2024-02-28T03:27:06;50.85;;;22.63;;
51636;SDS011;37713;53.254;6.460;2024-02-28T03:29:33;51.50;;;23.35;;
51636;SDS011;37713;53.254;6.460;2024-02-28T03:31:59;48.20;;;22.35;;
51636;SDS011;37713;53.254;6.460;2024-02-28T03:34:25;51.67;;;23.33;;
51636;SDS011;37713;53.254;6.460;2024-02-28T03:36:51;49.72;;;23.80;;
51636;SDS011;37713;53.254;6.460;2024-02-28T03:39:17;49.75;;;23.60;;
51636;SDS011;37713;53.254;6.460;2024-02-28T03:41:43;51.15;;;24.10;;
51636;SDS011;37713;53.254;6.460;2024-02-28T03:44:09;51.00;;;22.80;;
51636;SDS011;37713;53.254;6.460;2024-02-28T03:46:35;53.08;;;24.00;;
51636;SDS011;37713;53.254;6.460;2024-02-28T03:49:01;52.33;;;24.38;;
51636;SDS011;37713;53.254;6.460;2024-02-28T03:51:27;46.13;;;22.50;;
51636;SDS011;37713;53.254;6.460;2024-02-28T03:53:54;52.08;;;23.85;;
51636;SDS011;37713;53.254;6.460;2024-02-28T03:56:24;54.08;;;24.27;;
51636;SDS011;37713;53.254;6.460;2024-02-28T03:58:50;54.85;;;24.35;;
51636;SDS011;37713;53.254;6.460;2024-02-28T04:01:17;51.28;;;23.48;;
51636;SDS011;37713;53.254;6.460;2024-02-28T04:03:43;50.60;;;24.52;;
51636;SDS011;37713;53.254;6.460;2024-02-28T04:06:09;52.88;;;24.27;;
51636;SDS011;37713;53.254;6.460;2024-02-28T04:08:36;51.03;;;23.70;;
51636;SDS011;37713;53.254;6.460;2024-02-28T04:11:02;57.45;;;24.38;;
51636;SDS011;37713;53.254;6.460;2024-02-28T04:13:27;55.20;;;24.70;;
51636;SDS011;37713;53.254;6.460;2024-02-28T04:15:53;55.33;;;24.45;;
51636;SDS011;37713;53.254;6.460;2024-02-28T04:18:19;51.42;;;23.77;;
51636;SDS011;37713;53.254;6.460;2024-02-28T04:20:45;49.75;;;24.30;;
51636;SDS011;37713;53.254;6.460;2024-02-28T04:23:11;53.90;;;23.80;;
51636;SDS011;37713;53.254;6.460;2024-02-28T04:25:37;52.97;;;23.52;;
51636;SDS011;37713;53.254;6.460;2024-02-28T04:28:05;54.55;;;24.73;;
51636;SDS011;37713;53.254;6.460;2024-02-28T04:30:33;52.22;;;23.58;;
51636;SDS011;37713;53.254;6.460;2024-02-28T04:32:59;49.20;;;23.38;;
51636;SDS011;37713;53.254;6.460;2024-02-28T04:35:25;55.65;;;25.23;;
51636;SDS011;37713;53.254;6.460;2024-02-28T04:37:51;53.13;;;24.45;;
51636;SDS011;37713;53.254;6.460;2024-02-28T04:40:17;54.10;;;24.58;;
51636;SDS011;37713;53.254;6.460;2024-02-28T04:42:42;51.85;;;23.42;;
51636;SDS011;37713;53.254;6.460;2024-02-28T04:45:09;53.50;;;25.08;;
51636;SDS011;37713;53.254;6.460;2024-02-28T04:47:36;49.67;;;24.55;;
51636;SDS011;37713;53.254;6.460;2024-02-28T04:50:03;52.45;;;24.10;;
51636;SDS011;37713;53.254;6.460;2024-02-28T04:52:32;52.78;;;24.15;;
51636;SDS011;37713;53.254;6.460;2024-02-28T04:54:59;52.38;;;24.20;;
51636;SDS011;37713;53.254;6.460;2024-02-28T04:57:25;53.42;;;23.52;;
51636;SDS011;37713;53.254;6.460;2024-02-28T04:59:51;52.85;;;23.63;;
51636;SDS011;37713;53.254;6.460;2024-02-28T05:02:17;52.58;;;24.60;;
51636;SDS011;37713;53.254;6.460;2024-02-28T05:04:43;51.00;;;23.98;;
51636;SDS011;37713;53.254;6.460;2024-02-28T05:07:09;50.35;;;24.52;;
51636;SDS011;37713;53.254;6.460;2024-02-28T05:09:35;49.70;;;23.52;;
51636;SDS011;37713;53.254;6.460;2024-02-28T05:12:01;48.78;;;23.52;;
51636;SDS011;37713;53.254;6.460;2024-02-28T05:14:27;50.53;;;24.13;;
51636;SDS011;37713;53.254;6.460;2024-02-28T05:16:53;50.13;;;24.63;;
51636;SDS011;37713;53.254;6.460;2024-02-28T05:19:19;46.90;;;23.17;;
51636;SDS011;37713;53.254;6.460;2024-02-28T05:21:45;52.72;;;24.90;;
51636;SDS011;37713;53.254;6.460;2024-02-28T05:24:11;55.15;;;24.77;;
51636;SDS011;37713;53.254;6.460;2024-02-28T05:26:38;50.58;;;23.83;;
51636;SDS011;37713;53.254;6.460;2024-02-28T05:29:04;53.70;;;24.80;;
51636;SDS011;37713;53.254;6.460;2024-02-28T05:31:31;53.28;;;23.95;;
51636;SDS011;37713;53.254;6.460;2024-02-28T05:33:58;53.28;;;24.23;;
51636;SDS011;37713;53.254;6.460;2024-02-28T05:36:25;55.63;;;24.60;;
51636;SDS011;37713;53.254;6.460;2024-02-28T05:38:53;52.85;;;24.33;;
51636;SDS011;37713;53.254;6.460;2024-02-28T05:41:20;52.28;;;24.90;;
51636;SDS011;37713;53.254;6.460;2024-02-28T05:43:47;55.60;;;25.77;;
51636;SDS011;37713;53.254;6.460;2024-02-28T05:46:13;53.00;;;24.58;;
51636;SDS011;37713;53.254;6.460;2024-02-28T05:48:44;55.40;;;25.30;;
51636;SDS011;37713;53.254;6.460;2024-02-28T05:51:10;50.08;;;23.63;;
51636;SDS011;37713;53.254;6.460;2024-02-28T05:53:36;55.60;;;25.38;;
51636;SDS011;37713;53.254;6.460;2024-02-28T05:56:06;55.53;;;26.40;;
51636;SDS011;37713;53.254;6.460;2024-02-28T05:58:40;47.95;;;23.63;;
51636;SDS011;37713;53.254;6.460;2024-02-28T06:01:06;52.63;;;24.70;;
51636;SDS011;37713;53.254;6.460;2024-02-28T06:03:33;53.33;;;25.15;;
51636;SDS011;37713;53.254;6.460;2024-02-28T06:05:59;54.88;;;24.92;;
51636;SDS011;37713;53.254;6.460;2024-02-28T06:08:25;53.67;;;24.90;;
51636;SDS011;37713;53.254;6.460;2024-02-28T06:10:51;53.72;;;24.92;;
51636;SDS011;37713;53.254;6.460;2024-02-28T06:13:17;51.22;;;25.13;;
51636;SDS011;37713;53.254;6.460;2024-02-28T06:15:43;58.85;;;26.25;;
51636;SDS011;37713;53.254;6.460;2024-02-28T06:18:10;53.55;;;25.35;;
51636;SDS011;37713;53.254;6.460;2024-02-28T06:20:36;54.13;;;25.52;;
51636;SDS011;37713;53.254;6.460;2024-02-28T06:23:02;55.05;;;26.05;;
51636;SDS011;37713;53.254;6.460;2024-02-28T06:25:29;59.20;;;26.67;;
51636;SDS011;37713;53.254;6.460;2024-02-28T06:27:55;52.38;;;24.38;;
51636;SDS011;37713;53.254;6.460;2024-02-28T06:30:20;59.05;;;26.98;;
51636;SDS011;37713;53.254;6.460;2024-02-28T06:32:46;59.97;;;26.35;;
51636;SDS011;37713;53.254;6.460;2024-02-28T06:35:13;61.67;;;27.23;;
51636;SDS011;37713;53.254;6.460;2024-02-28T06:37:39;56.70;;;26.70;;
51636;SDS011;37713;53.254;6.460;2024-02-28T06:40:05;60.58;;;26.67;;
51636;SDS011;37713;53.254;6.460;2024-02-28T06:42:34;60.87;;;27.30;;
51636;SDS011;37713;53.254;6.460;2024-02-28T06:45:04;64.90;;;26.50;;
51636;SDS011;37713;53.254;6.460;2024-02-28T06:47:30;65.15;;;27.45;;
51636;SDS011;37713;53.254;6.460;2024-02-28T06:49:58;59.95;;;26.50;;
51636;SDS011;37713;53.254;6.460;2024-02-28T06:52:24;62.75;;;27.27;;
51636;SDS011;37713;53.254;6.460;2024-02-28T06:54:50;61.88;;;27.50;;
51636;SDS011;37713;53.254;6.460;2024-02-28T06:57:16;70.15;;;27.25;;
51636;SDS011;37713;53.254;6.460;2024-02-28T06:59:42;63.47;;;27.95;;
51636;SDS011;37713;53.254;6.460;2024-02-28T07:02:08;64.32;;;27.65;;
51636;SDS011;37713;53.254;6.460;2024-02-28T07:04:34;63.42;;;27.63;;
51636;SDS011;37713;53.254;6.460;2024-02-28T07:07:00;74.05;;;28.02;;
51636;SDS011;37713;53.254;6.460;2024-02-28T07:09:26;77.38;;;29.95;;
51636;SDS011;37713;53.254;6.460;2024-02-28T07:11:54;70.68;;;28.40;;
51636;SDS011;37713;53.254;6.460;2024-02-28T07:14:20;66.47;;;27.88;;
51636;SDS011;37713;53.254;6.460;2024-02-28T07:16:46;74.93;;;29.00;;
51636;SDS011;37713;53.254;6.460;2024-02-28T07:19:12;84.38;;;30.15;;
51636;SDS011;37713;53.254;6.460;2024-02-28T07:21:37;72.53;;;29.73;;
51636;SDS011;37713;53.254;6.460;2024-02-28T07:24:04;74.15;;;30.98;;
51636;SDS011;37713;53.254;6.460;2024-02-28T07:26:31;74.80;;;30.40;;
51636;SDS011;37713;53.254;6.460;2024-02-28T07:28:57;73.60;;;30.13;;
51636;SDS011;37713;53.254;6.460;2024-02-28T07:31:23;73.22;;;30.42;;
51636;SDS011;37713;53.254;6.460;2024-02-28T07:33:48;70.80;;;30.17;;
51636;SDS011;37713;53.254;6.460;2024-02-28T07:36:14;75.40;;;30.98;;
51636;SDS011;37713;53.254;6.460;2024-02-28T07:38:41;63.78;;;29.25;;
51636;SDS011;37713;53.254;6.460;2024-02-28T07:41:07;68.38;;;29.33;;
51636;SDS011;37713;53.254;6.460;2024-02-28T07:43:33;67.82;;;29.20;;
51636;SDS011;37713;53.254;6.460;2024-02-28T07:46:06;60.00;;;28.42;;
51636;SDS011;37713;53.254;6.460;2024-02-28T07:48:33;68.47;;;29.58;;
51636;SDS011;37713;53.254;6.460;2024-02-28T07:50:59;63.28;;;29.00;;
51636;SDS011;37713;53.254;6.460;2024-02-28T07:53:26;60.72;;;29.67;;
51636;SDS011;37713;53.254;6.460;2024-02-28T07:55:52;62.38;;;30.27;;
51636;SDS011;37713;53.254;6.460;2024-02-28T07:58:18;62.33;;;27.50;;
51636;SDS011;37713;53.254;6.460;2024-02-28T08:00:44;62.17;;;28.65;;
51636;SDS011;37713;53.254;6.460;2024-02-28T08:03:10;57.38;;;28.50;;
51636;SDS011;37713;53.254;6.460;2024-02-28T08:05:35;73.00;;;28.60;;
51636;SDS011;37713;53.254;6.460;2024-02-28T08:08:07;57.33;;;27.40;;
51636;SDS011;37713;53.254;6.460;2024-02-28T08:10:33;57.28;;;27.90;;
51636;SDS011;37713;53.254;6.460;2024-02-28T08:13:03;53.50;;;26.70;;
51636;SDS011;37713;53.254;6.460;2024-02-28T08:15:29;54.05;;;27.42;;
51636;SDS011;37713;53.254;6.460;2024-02-28T08:17:56;56.72;;;26.92;;
51636;SDS011;37713;53.254;6.460;2024-02-28T08:20:23;55.80;;;27.85;;
51636;SDS011;37713;53.254;6.460;2024-02-28T08:22:49;57.17;;;27.77;;
51636;SDS011;37713;53.254;6.460;2024-02-28T08:25:18;55.28;;;27.17;;
51636;SDS011;37713;53.254;6.460;2024-02-28T08:27:44;51.40;;;27.08;;
51636;SDS011;37713;53.254;6.460;2024-02-28T08:30:10;55.83;;;27.23;;
51636;SDS011;37713;53.254;6.460;2024-02-28T08:32:36;57.55;;;27.25;;
51636;SDS011;37713;53.254;6.460;2024-02-28T08:35:01;55.67;;;28.80;;
51636;SDS011;37713;53.254;6.460;2024-02-28T08:37:27;54.50;;;27.40;;
51636;SDS011;37713;53.254;6.460;2024-02-28T08:39:54;56.20;;;27.33;;
51636;SDS011;37713;53.254;6.460;2024-02-28T08:42:26;58.65;;;27.98;;
51636;SDS011;37713;53.254;6.460;2024-02-28T08:44:52;55.28;;;27.27;;
51636;SDS011;37713;53.254;6.460;2024-02-28T08:47:23;50.92;;;27.38;;
51636;SDS011;37713;53.254;6.460;2024-02-28T08:49:50;51.05;;;27.33;;
51636;SDS011;37713;53.254;6.460;2024-02-28T08:52:16;56.75;;;28.70;;
51636;SDS011;37713;53.254;6.460;2024-02-28T08:54:42;56.75;;;27.55;;
51636;SDS011;37713;53.254;6.460;2024-02-28T08:57:08;56.90;;;28.55;;
51636;SDS011;37713;53.254;6.460;2024-02-28T08:59:34;55.90;;;28.35;;
51636;SDS011;37713;53.254;6.460;2024-02-28T09:02:00;52.90;;;27.15;;
51636;SDS011;37713;53.254;6.460;2024-02-28T09:04:26;52.38;;;27.45;;
51636;SDS011;37713;53.254;6.460;2024-02-28T09:06:52;55.28;;;27.02;;
51636;SDS011;37713;53.254;6.460;2024-02-28T09:09:21;55.63;;;27.55;;
51636;SDS011;37713;53.254;6.460;2024-02-28T09:11:46;54.92;;;28.13;;
51636;SDS011;37713;53.254;6.460;2024-02-28T09:14:12;54.33;;;27.00;;
51636;SDS011;37713;53.254;6.460;2024-02-28T09:16:38;57.00;;;28.20;;
51636;SDS011;37713;53.254;6.460;2024-02-28T09:19:04;55.38;;;28.10;;
51636;SDS011;37713;53.254;6.460;2024-02-28T09:21:30;56.60;;;28.25;;
51636;SDS011;37713;53.254;6.460;2024-02-28T09:23:57;54.63;;;26.98;;
51636;SDS011;37713;53.254;6.460;2024-02-28T09:26:22;57.50;;;27.23;;
51636;SDS011;37713;53.254;6.460;2024-02-28T09:28:48;52.50;;;28.23;;
51636;SDS011;37713;53.254;6.460;2024-02-28T09:31:14;52.22;;;27.75;;
51636;SDS011;37713;53.254;6.460;2024-02-28T09:33:43;52.58;;;27.42;;
51636;SDS011;37713;53.254;6.460;2024-02-28T09:36:10;49.15;;;26.30;;
51636;SDS011;37713;53.254;6.460;2024-02-28T09:38:37;51.63;;;27.58;;
51636;SDS011;37713;53.254;6.460;2024-02-28T09:41:03;50.90;;;27.30;;
51636;SDS011;37713;53.254;6.460;2024-02-28T09:43:29;53.30;;;28.38;;
51636;SDS011;37713;53.254;6.460;2024-02-28T09:45:58;50.75;;;27.13;;
51636;SDS011;37713;53.254;6.460;2024-02-28T09:48:28;60.17;;;28.67;;
51636;SDS011;37713;53.254;6.460;2024-02-28T09:50:58;53.78;;;27.80;;
51636;SDS011;37713;53.254;6.460;2024-02-28T09:53:25;49.60;;;26.30;;
51636;SDS011;37713;53.254;6.460;2024-02-28T09:55:52;50.55;;;28.10;;
51636;SDS011;37713;53.254;6.460;2024-02-28T09:58:18;54.72;;;27.38;;
51636;SDS011;37713;53.254;6.460;2024-02-28T10:00:47;50.92;;;27.05;;
51636;SDS011;37713;53.254;6.460;2024-02-28T10:03:16;57.58;;;28.00;;
51636;SDS011;37713;53.254;6.460;2024-02-28T10:05:47;55.05;;;28.50;;
51636;SDS011;37713;53.254;6.460;2024-02-28T10:08:14;51.60;;;27.85;;
51636;SDS011;37713;53.254;6.460;2024-02-28T10:10:47;54.83;;;27.73;;
51636;SDS011;37713;53.254;6.460;2024-02-28T10:13:15;52.97;;;27.75;;
51636;SDS011;37713;53.254;6.460;2024-02-28T10:15:41;53.03;;;28.38;;
51636;SDS011;37713;53.254;6.460;2024-02-28T10:18:07;50.58;;;26.95;;
51636;SDS011;37713;53.254;6.460;2024-02-28T10:20:33;48.78;;;27.00;;
51636;SDS011;37713;53.254;6.460;2024-02-28T10:23:03;49.72;;;26.52;;
51636;SDS011;37713;53.254;6.460;2024-02-28T10:25:41;52.65;;;28.85;;
51636;SDS011;37713;53.254;6.460;2024-02-28T10:28:11;46.35;;;25.98;;
51636;SDS011;37713;53.254;6.460;2024-02-28T10:30:42;46.40;;;26.50;;
51636;SDS011;37713;53.254;6.460;2024-02-28T10:33:15;47.50;;;26.88;;
51636;SDS011;37713;53.254;6.460;2024-02-28T10:38:27;45.00;;;25.13;;
51636;SDS011;37713;53.254;6.460;2024-02-28T10:40:53;48.35;;;26.60;;
51636;SDS011;37713;53.254;6.460;2024-02-28T10:43:20;50.10;;;28.75;;
51636;SDS011;37713;53.254;6.460;2024-02-28T10:45:47;50.00;;;28.40;;
51636;SDS011;37713;53.254;6.460;2024-02-28T10:48:14;51.15;;;27.00;;
51636;SDS011;37713;53.254;6.460;2024-02-28T10:50:41;55.10;;;28.10;;
51636;SDS011;37713;53.254;6.460;2024-02-28T10:53:12;52.42;;;27.42;;
51636;SDS011;37713;53.254;6.460;2024-02-28T10:58:06;50.38;;;27.45;;
51636;SDS011;37713;53.254;6.460;2024-02-28T11:00:35;50.08;;;28.60;;
51636;SDS011;37713;53.254;6.460;2024-02-28T11:03:12;51.90;;;29.05;;
51636;SDS011;37713;53.254;6.460;2024-02-28T11:05:42;53.85;;;29.85;;
51636;SDS011;37713;53.254;6.460;2024-02-28T11:08:21;51.90;;;29.40;;
51636;SDS011;37713;53.254;6.460;2024-02-28T11:10:57;54.33;;;27.67;;
51636;SDS011;37713;53.254;6.460;2024-02-28T11:13:27;54.25;;;28.55;;
51636;SDS011;37713;53.254;6.460;2024-02-28T11:15:53;50.47;;;27.67;;
51636;SDS011;37713;53.254;6.460;2024-02-28T11:18:22;48.17;;;28.17;;
51636;SDS011;37713;53.254;6.460;2024-02-28T11:20:48;47.80;;;26.38;;
51636;SDS011;37713;53.254;6.460;2024-02-28T11:23:18;49.10;;;26.98;;
51636;SDS011;37713;53.254;6.460;2024-02-28T11:25:44;50.95;;;28.40;;
51636;SDS011;37713;53.254;6.460;2024-02-28T11:28:10;48.67;;;26.63;;
51636;SDS011;37713;53.254;6.460;2024-02-28T11:30:36;52.22;;;28.05;;
51636;SDS011;37713;53.254;6.460;2024-02-28T11:33:02;49.97;;;25.70;;
51636;SDS011;37713;53.254;6.460;2024-02-28T11:35:28;51.13;;;27.30;;
51636;SDS011;37713;53.254;6.460;2024-02-28T11:37:55;50.15;;;27.95;;
51636;SDS011;37713;53.254;6.460;2024-02-28T11:40:24;46.20;;;26.67;;
51636;SDS011;37713;53.254;6.460;2024-02-28T11:42:53;48.75;;;26.42;;
51636;SDS011;37713;53.254;6.460;2024-02-28T11:45:20;46.15;;;26.45;;
51636;SDS011;37713;53.254;6.460;2024-02-28T11:47:46;46.35;;;26.17;;
51636;SDS011;37713;53.254;6.460;2024-02-28T11:50:12;44.35;;;25.30;;
51636;SDS011;37713;53.254;6.460;2024-02-28T11:52:40;44.70;;;25.15;;
51636;SDS011;37713;53.254;6.460;2024-02-28T11:55:06;45.33;;;26.73;;
51636;SDS011;37713;53.254;6.460;2024-02-28T11:57:32;42.92;;;25.08;;
51636;SDS011;37713;53.254;6.460;2024-02-28T12:00:08;39.20;;;24.17;;
51636;SDS011;37713;53.254;6.460;2024-02-28T12:02:38;40.88;;;23.08;;
51636;SDS011;37713;53.254;6.460;2024-02-28T12:05:04;42.75;;;24.05;;
51636;SDS011;37713;53.254;6.460;2024-02-28T12:07:30;43.20;;;24.60;;
51636;SDS011;37713;53.254;6.460;2024-02-28T12:09:57;50.42;;;25.70;;
51636;SDS011;37713;53.254;6.460;2024-02-28T12:12:23;43.78;;;25.80;;
51636;SDS011;37713;53.254;6.460;2024-02-28T12:14:50;42.78;;;25.17;;
51636;SDS011;37713;53.254;6.460;2024-02-28T12:17:16;45.38;;;25.88;;
51636;SDS011;37713;53.254;6.460;2024-02-28T12:19:43;45.40;;;26.15;;
51636;SDS011;37713;53.254;6.460;2024-02-28T12:22:09;43.97;;;25.63;;
51636;SDS011;37713;53.254;6.460;2024-02-28T12:24:35;49.38;;;27.35;;
51636;SDS011;37713;53.254;6.460;2024-02-28T12:27:01;48.03;;;28.40;;
51636;SDS011;37713;53.254;6.460;2024-02-28T12:29:27;48.45;;;28.58;;
51636;SDS011;37713;53.254;6.460;2024-02-28T12:31:53;57.22;;;36.38;;
51636;SDS011;37713;53.254;6.460;2024-02-28T12:34:19;48.75;;;29.23;;
51636;SDS011;37713;53.254;6.460;2024-02-28T12:36:46;45.75;;;27.08;;
51636;SDS011;37713;53.254;6.460;2024-02-28T12:39:12;49.13;;;29.23;;
51636;SDS011;37713;53.254;6.460;2024-02-28T12:41:38;46.30;;;27.30;;
51636;SDS011;37713;53.254;6.460;2024-02-28T12:44:07;45.55;;;27.10;;
51636;SDS011;37713;53.254;6.460;2024-02-28T12:46:34;46.08;;;27.27;;
51636;SDS011;37713;53.254;6.460;2024-02-28T12:49:00;44.78;;;27.88;;
51636;SDS011;37713;53.254;6.460;2024-02-28T12:51:40;44.80;;;28.52;;
51636;SDS011;37713;53.254;6.460;2024-02-28T12:54:08;44.08;;;27.27;;
51636;SDS011;37713;53.254;6.460;2024-02-28T12:56:35;43.15;;;26.83;;
51636;SDS011;37713;53.254;6.460;2024-02-28T12:59:01;44.50;;;27.20;;
51636;SDS011;37713;53.254;6.460;2024-02-28T13:01:28;44.60;;;26.73;;
51636;SDS011;37713;53.254;6.460;2024-02-28T13:03:54;44.97;;;26.25;;
51636;SDS011;37713;53.254;6.460;2024-02-28T13:06:20;41.33;;;25.73;;
51636;SDS011;37713;53.254;6.460;2024-02-28T13:08:47;43.38;;;26.98;;
51636;SDS011;37713;53.254;6.460;2024-02-28T13:11:22;39.92;;;25.83;;
51636;SDS011;37713;53.254;6.460;2024-02-28T13:13:49;43.35;;;26.50;;
51636;SDS011;37713;53.254;6.460;2024-02-28T13:16:16;38.85;;;25.50;;
51636;SDS011;37713;53.254;6.460;2024-02-28T13:18:44;44.28;;;27.08;;
51636;SDS011;37713;53.254;6.460;2024-02-28T13:21:11;47.03;;;27.65;;
51636;SDS011;37713;53.254;6.460;2024-02-28T13:23:37;42.63;;;26.20;;
51636;SDS011;37713;53.254;6.460;2024-02-28T13:26:06;40.90;;;25.95;;
51636;SDS011;37713;53.254;6.460;2024-02-28T13:28:33;41.70;;;26.33;;
51636;SDS011;37713;53.254;6.460;2024-02-28T13:31:00;40.67;;;26.17;;
51636;SDS011;37713;53.254;6.460;2024-02-28T13:33:27;41.65;;;25.45;;
51636;SDS011;37713;53.254;6.460;2024-02-28T13:35:53;37.28;;;24.48;;
51636;SDS011;37713;53.254;6.460;2024-02-28T13:38:20;39.15;;;24.63;;
51636;SDS011;37713;53.254;6.460;2024-02-28T13:40:49;37.20;;;24.80;;
51636;SDS011;37713;53.254;6.460;2024-02-28T13:43:15;38.17;;;24.98;;
51636;SDS011;37713;53.254;6.460;2024-02-28T13:45:45;37.72;;;24.52;;
51636;SDS011;37713;53.254;6.460;2024-02-28T13:48:16;39.90;;;24.92;;
51636;SDS011;37713;53.254;6.460;2024-02-28T13:50:44;38.38;;;25.80;;
51636;SDS011;37713;53.254;6.460;2024-02-28T13:53:10;37.92;;;25.08;;
51636;SDS011;37713;53.254;6.460;2024-02-28T13:55:37;36.55;;;24.45;;
51636;SDS011;37713;53.254;6.460;2024-02-28T13:58:03;37.55;;;23.73;;
51636;SDS011;37713;53.254;6.460;2024-02-28T14:00:30;38.50;;;24.83;;
51636;SDS011;37713;53.254;6.460;2024-02-28T14:02:56;38.10;;;24.15;;
51636;SDS011;37713;53.254;6.460;2024-02-28T14:05:22;38.58;;;24.73;;
51636;SDS011;37713;53.254;6.460;2024-02-28T14:07:48;36.03;;;24.02;;
51636;SDS011;37713;53.254;6.460;2024-02-28T14:10:14;41.38;;;25.40;;
51636;SDS011;37713;53.254;6.460;2024-02-28T14:12:41;38.42;;;26.33;;
51636;SDS011;37713;53.254;6.460;2024-02-28T14:15:07;38.58;;;23.98;;
51636;SDS011;37713;53.254;6.460;2024-02-28T14:17:36;35.47;;;23.67;;
51636;SDS011;37713;53.254;6.460;2024-02-28T14:20:03;34.90;;;23.98;;
51636;SDS011;37713;53.254;6.460;2024-02-28T14:22:29;38.70;;;25.35;;
51636;SDS011;37713;53.254;6.460;2024-02-28T14:24:55;38.13;;;24.90;;
51636;SDS011;37713;53.254;6.460;2024-02-28T14:27:21;37.17;;;25.15;;